Terminal Aerodrome Forecast
Issued by NWS Memphis, TN

Current Version | Previous Version | Text Only | Print | Product List | Glossary On
Versions: 1 2 3 4 5 6 7 8 9 10 11 12 13 14 15 16 17 18 19 20 21 22 23 24 25
000
FTUS44 KMEG 291120
TAFMEM
TAF
KMEM 291120Z 2912/3012 02006KT P6SM OVC009
     FM291400 03005KT P6SM OVC020
     FM291800 02006KT P6SM OVC250
     FM300100 03006KT P6SM OVC050=

USA.gov is the U.S. government's official web portal to all federal, state and local government web resources and services.